Time;durP1;ratioP1;P1;durP2;ratioP2;P2;SDS_P1;SDS_P2;PMS_P1;PMS_P2;Temp;Humidity;BMP_temperature;BMP_pressure;BME280_temperature;BME280_humidity;BME280_pressure;Samples;Min_cycle;Max_cycle;Signal;HPM_P1;HPM_P2
2023/09/29 00:02:05;;;;;;;25.25;10.75;;;16.90;99.90;;;;;;5060354;28;20122;-72
2023/09/29 00:04:30;;;;;;;23.33;11.65;;;16.90;99.90;;;;;;5061354;28;20025;-71
2023/09/29 00:06:56;;;;;;;20.40;11.30;;;16.90;99.90;;;;;;5061288;28;20021;-72
2023/09/29 00:09:22;;;;;;;24.83;11.57;;;16.90;99.90;;;;;;5059189;28;20074;-73
2023/09/29 00:11:48;;;;;;;21.20;11.18;;;16.90;99.90;;;;;;5061131;28;20021;-72
2023/09/29 00:14:14;;;;;;;21.10;11.45;;;16.90;99.90;;;;;;5061566;28;20035;-71
2023/09/29 00:16:40;;;;;;;23.52;11.25;;;16.90;99.90;;;;;;5059760;28;20115;-74
2023/09/29 00:19:05;;;;;;;25.27;10.95;;;16.90;99.90;;;;;;5061395;28;20112;-73
2023/09/29 00:21:31;;;;;;;25.95;12.20;;;17.00;99.90;;;;;;5061047;28;20036;-72
2023/09/29 00:23:57;;;;;;;21.85;12.00;;;16.90;99.90;;;;;;5061323;28;20477;-71
2023/09/29 00:26:22;;;;;;;24.65;13.07;;;16.90;99.90;;;;;;5059756;28;20040;-74
2023/09/29 00:28:48;;;;;;;25.10;13.15;;;16.90;99.90;;;;;;5059336;28;20041;-72
2023/09/29 00:31:15;;;;;;;34.20;12.38;;;16.90;99.90;;;;;;5059032;28;20115;-73
2023/09/29 00:33:41;;;;;;;22.67;13.88;;;16.90;99.90;;;;;;5060919;28;20088;-71
2023/09/29 00:36:10;;;;;;;21.88;12.93;;;16.90;99.90;;;;;;5065122;28;20478;-72
2023/09/29 00:38:35;;;;;;;25.20;13.05;;;16.90;99.90;;;;;;5065046;28;20869;-73
2023/09/29 00:41:01;;;;;;;24.83;12.52;;;16.90;99.90;;;;;;5064028;28;20093;-72
2023/09/29 00:43:28;;;;;;;24.67;13.80;;;16.90;99.90;;;;;;5063456;28;20031;-72
2023/09/29 00:45:54;;;;;;;25.45;13.00;;;16.90;99.90;;;;;;5063321;28;20100;-72
2023/09/29 00:48:22;;;;;;;27.80;14.55;;;16.90;99.90;;;;;;5062646;28;20041;-73
2023/09/29 00:50:48;;;;;;;25.73;14.07;;;16.90;99.90;;;;;;5064902;28;20013;-73
2023/09/29 00:53:18;;;;;;;25.73;14.02;;;16.90;99.90;;;;;;5065027;28;20033;-73
2023/09/29 00:55:46;;;;;;;26.25;14.50;;;16.80;99.90;;;;;;5065051;28;20025;-73
2023/09/29 00:58:12;;;;;;;29.15;15.02;;;16.80;99.90;;;;;;5065331;28;20021;-75
2023/09/29 01:00:40;;;;;;;26.15;13.98;;;16.80;99.90;;;;;;5065552;28;20071;-73
2023/09/29 01:03:09;;;;;;;31.33;14.25;;;16.80;99.90;;;;;;5064953;28;20084;-71
2023/09/29 01:05:42;;;;;;;26.60;14.10;;;16.80;99.90;;;;;;5065161;28;20075;-73
2023/09/29 01:08:09;;;;;;;25.60;14.25;;;16.80;99.90;;;;;;5065300;28;20098;-72
2023/09/29 01:10:40;;;;;;;29.10;15.15;;;16.80;99.90;;;;;;5064770;28;20085;-72
2023/09/29 01:13:06;;;;;;;29.73;15.60;;;16.80;99.90;;;;;;5065374;28;20036;-74
2023/09/29 01:15:33;;;;;;;29.33;16.35;;;16.80;99.90;;;;;;5065110;28;20716;-73
2023/09/29 01:18:00;;;;;;;26.90;17.17;;;16.80;99.90;;;;;;5064511;28;20025;-72
2023/09/29 01:20:30;;;;;;;34.25;16.83;;;16.80;99.90;;;;;;5064718;28;20032;-72
2023/09/29 01:23:00;;;;;;;33.97;18.80;;;16.80;99.90;;;;;;5064696;28;20112;-72
2023/09/29 01:25:26;;;;;;;36.45;19.83;;;16.80;99.90;;;;;;5062124;28;20037;-72
2023/09/29 01:27:58;;;;;;;34.45;19.00;;;16.80;99.90;;;;;;5061349;28;20359;-74
2023/09/29 01:30:27;;;;;;;34.80;20.23;;;16.80;99.90;;;;;;5062584;28;20040;-74
2023/09/29 01:32:53;;;;;;;32.58;18.75;;;16.80;99.90;;;;;;5064374;28;20024;-73
2023/09/29 01:35:24;;;;;;;33.00;20.30;;;16.80;99.90;;;;;;5064524;28;20063;-73
2023/09/29 01:37:53;;;;;;;33.55;20.27;;;16.70;99.90;;;;;;5062881;28;20047;-73
2023/09/29 01:40:23;;;;;;;31.38;20.42;;;16.70;99.90;;;;;;5064059;28;20116;-73
2023/09/29 01:42:50;;;;;;;36.45;20.05;;;16.70;99.90;;;;;;5063055;28;20029;-74
2023/09/29 01:45:16;;;;;;;41.33;21.40;;;16.70;99.90;;;;;;5063370;28;20024;-74
2023/09/29 01:47:45;;;;;;;36.55;21.45;;;16.70;99.90;;;;;;5064016;28;20049;-72
2023/09/29 01:50:16;;;;;;;36.20;20.77;;;16.70;99.90;;;;;;5064011;28;20100;-72
2023/09/29 01:52:49;;;;;;;36.65;21.20;;;16.70;99.90;;;;;;5062998;28;20028;-72
2023/09/29 01:55:16;;;;;;;29.95;19.77;;;16.70;99.90;;;;;;5063169;28;20047;-73
2023/09/29 01:57:42;;;;;;;34.65;20.48;;;16.70;99.90;;;;;;5063756;28;20097;-74
2023/09/29 02:00:14;;;;;;;33.33;21.17;;;16.60;99.90;;;;;;5064226;28;20025;-73
2023/09/29 02:02:39;;;;;;;42.35;21.70;;;16.60;99.90;;;;;;5064166;28;20021;-73
2023/09/29 02:05:07;;;;;;;36.10;21.80;;;16.60;99.90;;;;;;5064085;28;20052;-74
2023/09/29 02:07:33;;;;;;;36.10;21.38;;;16.60;99.90;;;;;;5063695;28;20075;-72
2023/09/29 02:09:58;;;;;;;36.97;21.95;;;16.60;99.90;;;;;;5064016;28;20382;-73
2023/09/29 02:12:24;;;;;;;42.45;23.25;;;16.60;99.90;;;;;;5063747;28;20064;-73
2023/09/29 02:14:51;;;;;;;34.42;20.88;;;16.60;99.90;;;;;;5063389;28;20043;-74
2023/09/29 02:17:18;;;;;;;39.03;23.33;;;16.70;99.90;;;;;;5063852;28;20088;-75
2023/09/29 02:19:43;;;;;;;41.67;24.20;;;16.60;99.90;;;;;;5063495;28;20043;-72
2023/09/29 02:22:09;;;;;;;35.88;22.20;;;16.70;99.90;;;;;;5063892;28;20017;-75
2023/09/29 02:24:34;;;;;;;40.70;24.35;;;16.70;99.90;;;;;;5062500;28;20120;-73
2023/09/29 02:27:00;;;;;;;37.40;24.63;;;16.70;99.90;;;;;;5063440;28;20057;-73
2023/09/29 02:29:28;;;;;;;40.05;24.33;;;16.70;99.90;;;;;;5062862;28;20032;-74
2023/09/29 02:31:55;;;;;;;42.67;25.63;;;16.70;99.90;;;;;;5063123;28;20080;-72
2023/09/29 02:34:23;;;;;;;38.45;24.65;;;16.70;99.90;;;;;;5061778;28;20029;-73
2023/09/29 02:36:48;;;;;;;41.35;25.80;;;16.70;99.90;;;;;;5063307;28;20048;-74
2023/09/29 02:39:14;;;;;;;44.40;26.08;;;16.70;99.90;;;;;;5063474;28;20021;-73
2023/09/29 02:41:39;;;;;;;45.85;27.10;;;16.70;99.90;;;;;;5061741;28;20104;-75
2023/09/29 02:44:07;;;;;;;44.92;26.75;;;16.70;99.90;;;;;;5062254;28;20072;-73
2023/09/29 02:46:32;;;;;;;49.40;28.00;;;16.70;99.90;;;;;;5062738;28;20025;-72
2023/09/29 02:48:58;;;;;;;44.10;27.67;;;16.70;99.90;;;;;;5061821;28;20064;-74
2023/09/29 02:51:24;;;;;;;43.42;28.30;;;16.60;99.90;;;;;;5061644;28;20025;-73
2023/09/29 02:53:51;;;;;;;39.67;27.23;;;16.60;99.90;;;;;;5062782;28;20020;-74
2023/09/29 02:56:17;;;;;;;45.13;28.73;;;16.60;99.90;;;;;;5060805;28;20025;-73
2023/09/29 02:58:44;;;;;;;44.03;28.30;;;16.60;99.90;;;;;;5063398;28;20079;-76
2023/09/29 03:01:12;;;;;;;45.10;27.52;;;16.60;99.90;;;;;;5062650;28;20489;-75
2023/09/29 03:03:43;;;;;;;52.17;29.30;;;16.60;99.90;;;;;;5061989;28;20179;-74
2023/09/29 03:06:26;;;;;;;46.65;27.92;;;16.60;99.90;;;;;;5061387;28;20457;-72
2023/09/29 03:08:54;;;;;;;45.25;30.02;;;16.60;99.90;;;;;;5062283;28;20064;-74
2023/09/29 03:11:21;;;;;;;48.30;30.70;;;16.60;99.90;;;;;;5062616;28;20025;-73
2023/09/29 03:13:47;;;;;;;47.85;29.58;;;16.60;99.90;;;;;;5062907;28;20031;-74
2023/09/29 03:16:13;;;;;;;50.00;29.83;;;16.60;99.90;;;;;;5062730;28;20033;-76
2023/09/29 03:18:39;;;;;;;41.65;29.08;;;16.60;99.90;;;;;;5061755;28;20021;-74
2023/09/29 03:21:05;;;;;;;43.45;28.77;;;16.60;99.90;;;;;;5062243;28;20036;-75
2023/09/29 03:23:39;;;;;;;51.72;30.25;;;16.60;99.90;;;;;;5062494;28;20025;-74
2023/09/29 03:26:05;;;;;;;45.63;30.65;;;16.60;99.90;;;;;;5061307;28;20025;-75
2023/09/29 03:28:32;;;;;;;45.90;30.30;;;16.60;99.90;;;;;;5060748;28;20471;-73
2023/09/29 03:31:01;;;;;;;59.10;31.60;;;16.60;99.90;;;;;;5060963;28;20112;-72
2023/09/29 03:33:27;;;;;;;51.35;32.47;;;16.60;99.90;;;;;;5061846;28;20021;-73
2023/09/29 03:35:55;;;;;;;52.92;31.25;;;16.60;99.90;;;;;;5061809;28;20075;-73
2023/09/29 03:38:20;;;;;;;46.05;29.70;;;16.60;99.90;;;;;;5062229;28;20033;-74
2023/09/29 03:40:50;;;;;;;56.40;31.27;;;16.60;99.90;;;;;;5062411;28;20032;-73
2023/09/29 03:43:19;;;;;;;53.50;31.95;;;16.60;99.90;;;;;;5061970;28;20078;-73
2023/09/29 03:45:46;;;;;;;45.42;30.30;;;16.60;99.90;;;;;;5060923;28;20025;-73
2023/09/29 03:48:15;;;;;;;51.60;31.50;;;16.70;99.90;;;;;;5061658;28;20037;-74
2023/09/29 03:50:42;;;;;;;49.33;32.13;;;16.60;99.90;;;;;;5062110;28;20545;-74
2023/09/29 03:53:08;;;;;;;47.88;31.15;;;16.60;99.90;;;;;;5061950;28;20028;-74
2023/09/29 03:55:33;;;;;;;53.80;32.83;;;16.60;99.90;;;;;;5060275;28;20053;-73
2023/09/29 03:58:00;;;;;;;52.92;32.42;;;16.60;99.90;;;;;;5060755;28;20036;-74
2023/09/29 04:00:26;;;;;;;50.75;31.10;;;16.70;99.90;;;;;;5060111;28;20034;-74
2023/09/29 04:02:52;;;;;;;51.80;32.78;;;16.70;99.90;;;;;;5060014;28;20433;-73
2023/09/29 04:05:19;;;;;;;59.20;34.28;;;16.60;99.90;;;;;;5060064;28;20100;-73
2023/09/29 04:07:45;;;;;;;49.08;32.75;;;16.60;99.90;;;;;;5060489;28;20035;-74
2023/09/29 04:10:12;;;;;;;53.90;33.28;;;16.60;99.90;;;;;;5060112;28;20029;-74
2023/09/29 04:12:43;;;;;;;51.53;32.35;;;16.60;99.90;;;;;;5061934;28;20021;-73
2023/09/29 04:15:09;;;;;;;46.63;31.67;;;16.60;99.90;;;;;;5061729;28;20093;-74
2023/09/29 04:17:36;;;;;;;48.88;31.27;;;16.60;99.90;;;;;;5059833;28;20526;-73
2023/09/29 04:20:02;;;;;;;47.92;31.50;;;16.60;99.90;;;;;;5060561;28;20033;-75
2023/09/29 04:22:29;;;;;;;53.88;32.55;;;16.60;99.90;;;;;;5061541;28;20017;-73
2023/09/29 04:24:56;;;;;;;53.50;32.08;;;16.60;99.90;;;;;;5060971;28;20052;-74
2023/09/29 04:27:23;;;;;;;49.40;31.75;;;16.60;99.90;;;;;;5061813;28;20068;-74
2023/09/29 04:29:49;;;;;;;49.95;32.40;;;16.60;99.90;;;;;;5060928;28;20459;-72
2023/09/29 04:32:15;;;;;;;53.85;32.22;;;16.60;99.90;;;;;;5061539;28;20080;-75
2023/09/29 04:34:40;;;;;;;54.85;32.85;;;16.60;99.90;;;;;;5061917;28;20155;-73
2023/09/29 04:37:06;;;;;;;51.28;32.15;;;16.60;99.90;;;;;;5059652;28;20071;-73
2023/09/29 04:39:31;;;;;;;53.63;32.78;;;16.60;99.90;;;;;;5061499;28;20049;-73
2023/09/29 04:41:57;;;;;;;51.20;32.30;;;16.60;99.90;;;;;;5061795;28;20056;-72
2023/09/29 04:44:23;;;;;;;65.90;34.50;;;16.60;99.90;;;;;;5060568;28;20044;-75
2023/09/29 04:46:49;;;;;;;58.05;34.58;;;16.60;99.90;;;;;;5061548;28;20029;-74
2023/09/29 04:49:15;;;;;;;49.30;33.28;;;16.60;99.90;;;;;;5061157;28;20033;-73
2023/09/29 04:51:42;;;;;;;50.92;33.53;;;16.60;99.90;;;;;;5061304;28;20047;-75
2023/09/29 04:54:08;;;;;;;55.88;34.47;;;16.60;99.90;;;;;;5059161;28;20420;-72
2023/09/29 04:56:33;;;;;;;56.42;33.90;;;16.60;99.90;;;;;;5059991;28;20029;-74
2023/09/29 04:58:59;;;;;;;52.53;32.88;;;16.60;99.90;;;;;;5058984;28;20052;-74
2023/09/29 05:01:26;;;;;;;54.83;34.72;;;16.60;99.90;;;;;;5061384;28;20470;-72
2023/09/29 05:03:51;;;;;;;57.95;35.05;;;16.60;99.90;;;;;;5059992;28;20017;-72
2023/09/29 05:06:17;;;;;;;54.78;35.00;;;16.60;99.90;;;;;;5061154;28;20025;-73
2023/09/29 05:08:44;;;;;;;55.25;35.92;;;16.60;99.90;;;;;;5059490;28;20029;-73
2023/09/29 05:11:21;;;;;;;56.88;37.10;;;16.60;99.90;;;;;;5059091;28;20112;-74
2023/09/29 05:13:47;;;;;;;52.45;34.72;;;16.60;99.90;;;;;;5054914;28;20033;-73
2023/09/29 05:16:13;;;;;;;62.17;36.63;;;16.60;99.90;;;;;;5058992;28;20367;-72
2023/09/29 05:18:38;;;;;;;52.83;34.15;;;16.60;99.90;;;;;;5059663;28;20025;-72
2023/09/29 05:21:04;;;;;;;56.05;33.22;;;16.60;99.90;;;;;;5063249;28;20033;-71
2023/09/29 05:23:30;;;;;;;64.25;36.00;;;16.60;99.90;;;;;;5063637;28;20462;-71
2023/09/29 05:25:55;;;;;;;59.75;36.25;;;16.60;99.90;;;;;;5059977;28;20052;-71
2023/09/29 05:28:21;;;;;;;59.60;35.13;;;16.60;99.90;;;;;;5062094;28;20075;-71
2023/09/29 05:30:53;;;;;;;53.13;35.58;;;16.60;99.90;;;;;;5059445;28;20051;-73
2023/09/29 05:33:19;;;;;;;54.58;34.80;;;16.60;99.90;;;;;;5061501;28;20025;-72
2023/09/29 05:35:46;;;;;;;54.20;34.65;;;16.60;99.90;;;;;;5060825;28;20059;-73
2023/09/29 05:38:12;;;;;;;56.92;35.42;;;16.60;99.90;;;;;;5058087;28;20040;-71
2023/09/29 05:40:38;;;;;;;57.90;37.03;;;16.60;99.90;;;;;;5057286;28;20029;-71
2023/09/29 05:43:04;;;;;;;56.13;34.72;;;16.60;99.90;;;;;;5062030;28;20109;-70
2023/09/29 05:45:30;;;;;;;61.30;37.13;;;16.60;99.90;;;;;;5053046;28;20367;-72
2023/09/29 05:47:56;;;;;;;57.13;36.42;;;16.60;99.90;;;;;;5054109;28;20072;-71
2023/09/29 05:50:22;;;;;;;52.88;34.42;;;16.60;99.90;;;;;;5061456;28;20138;-71
2023/09/29 05:52:48;;;;;;;59.40;36.38;;;16.70;99.90;;;;;;5062462;28;20040;-71
2023/09/29 05:55:13;;;;;;;56.55;35.50;;;16.70;99.90;;;;;;5056370;28;20091;-72
2023/09/29 05:57:39;;;;;;;57.67;37.03;;;16.70;99.90;;;;;;5052665;28;20025;-72
2023/09/29 06:00:06;;;;;;;57.40;36.38;;;16.70;99.90;;;;;;5064085;28;21179;-71
2023/09/29 06:02:31;;;;;;;54.92;34.78;;;16.70;99.90;;;;;;5063384;28;20505;-72
2023/09/29 06:04:57;;;;;;;58.38;36.58;;;16.70;99.90;;;;;;5062857;28;20029;-71
2023/09/29 06:07:23;;;;;;;51.28;35.00;;;16.70;99.90;;;;;;5062164;28;20030;-71
2023/09/29 06:09:48;;;;;;;58.72;35.70;;;16.70;99.90;;;;;;5063397;28;20037;-71
2023/09/29 06:12:14;;;;;;;52.88;34.35;;;16.70;99.90;;;;;;5063980;28;20025;-75
2023/09/29 06:14:40;;;;;;;55.55;35.65;;;16.70;99.90;;;;;;5064293;28;20025;-73
2023/09/29 06:17:05;;;;;;;56.30;35.72;;;16.70;99.90;;;;;;5063654;28;20029;-71
2023/09/29 06:19:31;;;;;;;58.10;35.40;;;16.70;99.90;;;;;;5063875;28;20017;-71
2023/09/29 06:21:56;;;;;;;56.85;34.20;;;16.80;99.90;;;;;;5063688;28;20032;-72
2023/09/29 06:24:22;;;;;;;55.88;33.80;;;16.80;99.90;;;;;;5062280;28;20497;-72
2023/09/29 06:26:48;;;;;;;55.17;35.63;;;16.80;99.90;;;;;;5061899;28;20021;-73
2023/09/29 06:29:14;;;;;;;52.53;34.03;;;16.80;99.90;;;;;;5063455;28;20093;-72
2023/09/29 06:31:40;;;;;;;54.55;33.70;;;16.80;99.90;;;;;;5063799;28;20040;-72
2023/09/29 06:34:05;;;;;;;58.45;34.63;;;16.80;99.90;;;;;;5062442;28;20362;-71
2023/09/29 06:36:32;;;;;;;57.88;34.28;;;16.80;99.90;;;;;;5061962;28;20060;-71
2023/09/29 06:38:57;;;;;;;54.13;32.83;;;16.90;99.90;;;;;;5063403;28;20019;-72
2023/09/29 06:41:23;;;;;;;53.00;32.60;;;16.90;99.90;;;;;;5063403;28;20595;-72
2023/09/29 06:43:49;;;;;;;56.75;31.52;;;17.00;99.90;;;;;;5063474;28;20021;-72
2023/09/29 06:46:15;;;;;;;50.22;32.65;;;17.00;99.90;;;;;;5061968;28;20021;-73
2023/09/29 06:48:43;;;;;;;50.70;32.55;;;17.00;99.90;;;;;;5063479;28;20052;-71
2023/09/29 06:51:09;;;;;;;48.85;32.13;;;17.00;99.90;;;;;;5062763;28;20085;-71
2023/09/29 06:53:34;;;;;;;45.20;30.23;;;17.00;99.90;;;;;;5062983;28;20056;-71
2023/09/29 06:56:00;;;;;;;46.92;30.02;;;17.10;99.90;;;;;;5062825;28;20013;-72
2023/09/29 06:58:25;;;;;;;51.42;30.23;;;17.10;99.90;;;;;;5062938;28;20017;-72
2023/09/29 07:00:51;;;;;;;43.55;27.73;;;17.10;99.90;;;;;;5063014;28;20021;-72
2023/09/29 07:03:18;;;;;;;44.72;27.95;;;17.10;99.90;;;;;;5063232;28;20378;-71
2023/09/29 07:05:46;;;;;;;41.63;26.92;;;17.20;99.90;;;;;;5062351;28;20104;-73
2023/09/29 07:08:12;;;;;;;47.75;26.75;;;17.20;99.90;;;;;;5063144;28;20096;-71
2023/09/29 07:10:38;;;;;;;42.70;25.73;;;17.20;99.90;;;;;;5062992;28;20080;-71
2023/09/29 07:13:04;;;;;;;40.15;24.77;;;17.20;99.90;;;;;;5061318;28;20074;-73
2023/09/29 07:15:29;;;;;;;44.20;24.48;;;17.30;99.90;;;;;;5062983;28;20025;-72
2023/09/29 07:17:55;;;;;;;38.92;24.77;;;17.30;99.90;;;;;;5061367;28;20116;-71
2023/09/29 07:20:21;;;;;;;37.72;23.20;;;17.30;99.90;;;;;;5061060;28;20025;-73
2023/09/29 07:22:46;;;;;;;36.45;22.73;;;17.40;99.90;;;;;;5062695;28;20052;-72
2023/09/29 07:25:14;;;;;;;38.35;23.15;;;17.40;99.90;;;;;;5061374;28;20052;-71
2023/09/29 07:27:39;;;;;;;37.15;22.05;;;17.40;99.90;;;;;;5062321;28;20055;-73
2023/09/29 07:30:07;;;;;;;38.22;23.08;;;17.40;99.90;;;;;;5062638;28;20068;-71
2023/09/29 07:32:32;;;;;;;40.05;23.83;;;17.50;99.90;;;;;;5062265;28;20027;-71
2023/09/29 07:34:58;;;;;;;37.42;22.42;;;17.50;99.90;;;;;;5061079;28;20096;-71
2023/09/29 07:37:24;;;;;;;34.97;21.00;;;17.60;99.90;;;;;;5062200;28;20391;-72
2023/09/29 07:39:49;;;;;;;35.08;21.80;;;17.60;99.90;;;;;;5060776;28;20032;-71
2023/09/29 07:42:17;;;;;;;32.83;20.58;;;17.60;99.90;;;;;;5062171;28;20048;-70
2023/09/29 07:44:43;;;;;;;33.47;20.25;;;17.70;99.90;;;;;;5062619;28;20451;-72
2023/09/29 07:47:09;;;;;;;25.95;18.75;;;17.70;99.90;;;;;;5062169;28;20071;-71
2023/09/29 07:49:40;;;;;;;29.75;19.70;;;17.70;99.90;;;;;;5060552;28;20040;-71
2023/09/29 07:52:07;;;;;;;32.55;18.52;;;17.80;99.90;;;;;;5062142;28;20080;-70
2023/09/29 07:54:34;;;;;;;26.58;18.27;;;17.80;99.90;;;;;;5061629;28;20013;-72
2023/09/29 07:57:00;;;;;;;39.67;18.95;;;17.90;99.90;;;;;;5062361;28;20105;-71
2023/09/29 07:59:26;;;;;;;28.63;17.38;;;18.00;99.90;;;;;;5060591;28;20088;-71
2023/09/29 08:01:52;;;;;;;25.35;16.35;;;18.00;99.90;;;;;;5061148;28;20032;-70
2023/09/29 08:04:19;;;;;;;27.67;16.30;;;18.00;99.90;;;;;;5048694;28;20382;-73
2023/09/29 08:06:45;;;;;;;32.00;17.38;;;18.10;99.90;;;;;;5058722;28;20069;-73
2023/09/29 08:09:12;;;;;;;26.80;15.98;;;18.10;99.90;;;;;;5056954;28;20444;-70
2023/09/29 08:11:39;;;;;;;29.60;13.68;;;18.20;99.90;;;;;;5059887;28;20025;-72
2023/09/29 08:14:05;;;;;;;24.63;14.73;;;18.10;99.90;;;;;;5058059;28;20043;-70
2023/09/29 08:16:31;;;;;;;22.98;14.38;;;18.20;99.90;;;;;;5058385;28;20453;-72
2023/09/29 08:18:56;;;;;;;24.92;14.70;;;18.20;99.90;;;;;;5059167;28;20029;-71
2023/09/29 08:21:22;;;;;;;23.73;14.00;;;18.20;99.90;;;;;;5059135;28;20378;-72
2023/09/29 08:23:47;;;;;;;20.10;12.73;;;18.20;99.90;;;;;;5057753;28;20029;-71
2023/09/29 08:26:13;;;;;;;23.63;13.52;;;18.20;99.90;;;;;;5058972;28;20084;-70
2023/09/29 08:28:39;;;;;;;20.60;13.30;;;18.20;99.90;;;;;;5059004;28;20045;-72
2023/09/29 08:31:16;;;;;;;20.67;13.07;;;18.20;99.90;;;;;;5060098;28;20061;-71
2023/09/29 08:33:42;;;;;;;19.77;12.30;;;18.30;99.90;;;;;;5059243;28;20060;-71
2023/09/29 08:36:08;;;;;;;18.42;11.85;;;18.20;99.90;;;;;;5057711;28;20060;-71
2023/09/29 08:38:34;;;;;;;20.55;10.77;;;18.30;99.90;;;;;;5061718;28;20024;-71
2023/09/29 08:41:03;;;;;;;19.92;10.57;;;18.30;99.90;;;;;;5060941;28;20021;-71
2023/09/29 08:43:30;;;;;;;20.95;11.50;;;18.20;99.90;;;;;;5059804;28;20032;-72
2023/09/29 08:45:59;;;;;;;17.25;11.45;;;18.30;99.90;;;;;;5059849;28;20021;-72
2023/09/29 08:48:29;;;;;;;23.08;11.85;;;18.30;99.90;;;;;;5060041;28;20040;-71
2023/09/29 08:51:00;;;;;;;22.35;12.68;;;18.30;99.90;;;;;;5059440;28;20037;-72
2023/09/29 08:53:28;;;;;;;19.92;12.20;;;18.20;99.90;;;;;;5057905;28;20469;-71
2023/09/29 08:55:54;;;;;;;27.70;13.20;;;18.20;99.90;;;;;;5062157;28;20048;-72
2023/09/29 08:58:24;;;;;;;19.52;11.88;;;18.20;99.90;;;;;;5061895;28;20055;-72
2023/09/29 09:00:50;;;;;;;20.00;12.40;;;18.10;99.90;;;;;;5061114;28;20461;-73
2023/09/29 09:03:17;;;;;;;21.40;12.32;;;18.10;99.90;;;;;;5064041;28;20017;-72
2023/09/29 09:05:43;;;;;;;23.30;12.35;;;18.10;99.90;;;;;;5063900;28;20013;-74
2023/09/29 09:08:12;;;;;;;20.17;11.68;;;18.10;99.90;;;;;;5064186;28;20572;-72
2023/09/29 09:10:38;;;;;;;21.08;12.20;;;18.10;99.90;;;;;;5064540;28;20025;-72
2023/09/29 09:13:08;;;;;;;20.60;11.82;;;18.10;99.90;;;;;;5060913;28;20171;-72
2023/09/29 09:15:34;;;;;;;19.52;11.65;;;18.10;99.90;;;;;;5078126;28;20029;-71
2023/09/29 09:18:00;;;;;;;18.10;12.52;;;18.20;99.90;;;;;;5059763;28;20621;-72
2023/09/29 09:20:26;;;;;;;21.00;12.02;;;18.20;99.90;;;;;;5063304;28;20021;-71
2023/09/29 09:22:59;;;;;;;16.98;11.23;;;18.30;99.90;;;;;;5064060;28;20025;-72
2023/09/29 09:25:42;;;;;;;21.75;11.23;;;18.40;99.90;;;;;;5061665;28;20077;-72
2023/09/29 09:28:18;;;;;;;21.90;11.02;;;18.50;99.90;;;;;;5064608;28;21082;-73
2023/09/29 09:30:45;;;;;;;20.33;11.23;;;18.60;99.90;;;;;;5065024;28;20648;-71
2023/09/29 09:33:18;;;;;;;17.58;10.73;;;18.70;99.90;;;;;;5064365;28;20047;-74
2023/09/29 09:35:44;;;;;;;15.97;9.73;;;18.80;99.90;;;;;;5064484;28;20097;-72
2023/09/29 09:38:10;;;;;;;16.85;8.82;;;18.90;99.90;;;;;;5064821;28;20033;-73
2023/09/29 09:40:36;;;;;;;13.55;8.35;;;19.00;99.90;;;;;;5061362;28;20025;-71
2023/09/29 09:43:10;;;;;;;16.65;8.77;;;19.00;99.90;;;;;;5064139;28;20077;-72
2023/09/29 09:45:39;;;;;;;20.55;8.80;;;19.10;99.90;;;;;;5064012;28;20029;-72
2023/09/29 09:48:07;;;;;;;18.63;7.95;;;19.10;99.90;;;;;;5063481;28;20780;-71
2023/09/29 09:50:36;;;;;;;12.35;7.47;;;19.20;99.90;;;;;;5063763;28;20025;-72
2023/09/29 09:53:05;;;;;;;11.80;7.50;;;19.30;99.90;;;;;;5062830;28;20036;-73
2023/09/29 09:55:43;;;;;;;13.65;7.28;;;19.30;99.90;;;;;;5063560;28;20025;-72
2023/09/29 09:58:13;;;;;;;16.83;6.78;;;19.50;99.90;;;;;;5063560;28;20017;-71
2023/09/29 10:00:45;;;;;;;15.10;7.50;;;19.60;99.90;;;;;;5063775;28;20027;-71
2023/09/29 10:03:13;;;;;;;20.88;6.93;;;19.70;99.90;;;;;;5062444;28;20045;-74
2023/09/29 10:05:51;;;;;;;11.25;6.70;;;19.90;99.90;;;;;;5063413;28;20029;-72
2023/09/29 10:08:29;;;;;;;12.85;6.53;;;20.00;99.90;;;;;;5062805;28;20040;-71
2023/09/29 10:11:09;;;;;;;11.25;6.85;;;20.10;99.90;;;;;;5062157;28;20035;-72
2023/09/29 10:13:35;;;;;;;11.00;6.00;;;20.30;99.90;;;;;;5061557;28;20033;-71
2023/09/29 10:16:05;;;;;;;14.55;5.68;;;20.30;99.90;;;;;;5062722;28;20017;-71
2023/09/29 10:18:33;;;;;;;10.38;5.45;;;20.30;99.90;;;;;;5062786;28;20029;-69
2023/09/29 10:21:06;;;;;;;15.32;5.80;;;20.40;99.90;;;;;;5062996;28;20386;-72
2023/09/29 10:23:45;;;;;;;12.88;5.28;;;20.40;99.90;;;;;;5063302;28;20016;-71
2023/09/29 10:26:11;;;;;;;13.32;5.20;;;20.50;99.90;;;;;;5061527;28;20029;-72
2023/09/29 10:28:40;;;;;;;8.98;4.75;;;20.60;99.90;;;;;;5061930;28;20037;-73
2023/09/29 10:31:09;;;;;;;8.55;4.85;;;20.60;99.90;;;;;;5062438;28;20025;-73
2023/09/29 10:33:53;;;;;;;13.98;5.28;;;20.60;99.90;;;;;;5061808;28;20043;-72
2023/09/29 10:36:28;;;;;;;7.78;4.80;;;20.60;99.90;;;;;;5062785;28;20056;-71
2023/09/29 10:38:57;;;;;;;8.00;4.72;;;20.70;99.90;;;;;;5063199;28;20025;-72
2023/09/29 10:41:23;;;;;;;8.65;4.75;;;20.70;99.90;;;;;;5063428;28;20017;-72
2023/09/29 10:43:50;;;;;;;11.32;4.47;;;20.70;99.90;;;;;;5061620;28;20032;-71
2023/09/29 10:46:17;;;;;;;10.48;5.15;;;20.80;99.90;;;;;;5063729;28;20028;-71
2023/09/29 10:48:46;;;;;;;11.32;5.05;;;20.90;99.90;;;;;;5063477;28;20029;-71
2023/09/29 10:51:26;;;;;;;7.88;4.43;;;20.90;99.90;;;;;;5062954;28;20033;-71
2023/09/29 10:53:52;;;;;;;8.38;4.80;;;20.90;99.90;;;;;;5062003;28;20025;-70
2023/09/29 10:56:25;;;;;;;10.63;4.45;;;21.00;99.90;;;;;;5062925;28;20029;-72
2023/09/29 10:58:59;;;;;;;9.50;4.53;;;21.00;99.90;;;;;;5063153;28;20106;-71
2023/09/29 11:01:34;;;;;;;10.93;4.45;;;21.10;99.90;;;;;;5062402;28;20017;-70
2023/09/29 11:04:05;;;;;;;7.93;4.20;;;21.20;99.90;;;;;;5062878;28;20023;-72
2023/09/29 11:06:40;;;;;;;12.57;4.07;;;21.30;99.90;;;;;;5062893;28;20051;-70
2023/09/29 11:09:07;;;;;;;9.63;3.92;;;21.30;99.90;;;;;;5062903;28;20025;-70
2023/09/29 11:11:36;;;;;;;8.48;3.90;;;21.30;99.90;;;;;;5062311;28;20081;-71
2023/09/29 11:14:04;;;;;;;6.88;4.20;;;21.40;99.90;;;;;;5062414;28;20035;-71
2023/09/29 11:16:32;;;;;;;7.93;4.10;;;21.40;99.90;;;;;;5062364;28;20025;-71
2023/09/29 11:19:14;;;;;;;17.00;4.25;;;21.50;99.90;;;;;;5060662;28;20021;-70
2023/09/29 11:21:41;;;;;;;10.10;4.43;;;21.60;99.90;;;;;;5062761;28;20119;-72
2023/09/29 11:24:13;;;;;;;7.35;3.67;;;21.80;99.90;;;;;;5062208;28;20017;-71
2023/09/29 11:26:46;;;;;;;7.82;4.10;;;21.90;99.90;;;;;;5062149;28;20029;-73
2023/09/29 11:29:27;;;;;;;10.32;4.05;;;22.00;99.90;;;;;;5060920;28;20027;-71
2023/09/29 11:31:54;;;;;;;11.70;3.53;;;22.00;99.90;;;;;;5061454;28;20024;-72
2023/09/29 11:34:20;;;;;;;8.30;3.45;;;22.00;99.90;;;;;;5059585;28;20437;-71
2023/09/29 11:36:46;;;;;;;9.38;3.58;;;22.10;99.90;;;;;;5060124;28;20053;-70
2023/09/29 11:39:18;;;;;;;8.57;3.53;;;22.30;99.90;;;;;;5059650;28;20029;-72
2023/09/29 11:41:45;;;;;;;14.52;3.95;;;22.50;99.90;;;;;;5060370;28;20044;-70
2023/09/29 11:44:11;;;;;;;9.93;3.58;;;22.50;99.90;;;;;;5062094;28;20017;-71
2023/09/29 11:46:37;;;;;;;9.43;3.45;;;22.60;99.90;;;;;;5061810;28;20017;-72
2023/09/29 11:49:04;;;;;;;5.32;3.30;;;22.60;99.90;;;;;;5061858;28;20043;-72
2023/09/29 11:51:30;;;;;;;6.82;3.40;;;22.60;99.90;;;;;;5060442;28;20021;-71
2023/09/29 11:53:56;;;;;;;5.97;3.28;;;22.60;99.90;;;;;;5061965;28;20025;-71
2023/09/29 11:56:22;;;;;;;8.55;3.97;;;22.50;99.90;;;;;;5060657;28;20036;-71
2023/09/29 11:58:47;;;;;;;5.35;3.60;;;22.50;99.90;;;;;;5061672;28;20021;-71
2023/09/29 12:01:13;;;;;;;9.63;3.63;;;22.40;99.90;;;;;;5062180;28;20024;-73
2023/09/29 12:03:40;;;;;;;9.43;3.35;;;22.50;99.90;;;;;;5061941;28;20032;-72
2023/09/29 12:06:06;;;;;;;6.32;3.40;;;22.50;99.90;;;;;;5060108;28;20025;-71
2023/09/29 12:08:32;;;;;;;9.95;3.08;;;22.50;99.90;;;;;;5061339;28;20427;-71
2023/09/29 12:10:58;;;;;;;10.23;3.28;;;22.70;99.90;;;;;;5061743;28;20037;-69
2023/09/29 12:13:25;;;;;;;7.32;3.30;;;22.90;99.90;;;;;;5059401;28;20089;-70
2023/09/29 12:15:50;;;;;;;12.30;3.65;;;22.90;99.90;;;;;;5061730;28;20036;-71
2023/09/29 12:18:16;;;;;;;12.77;3.50;;;22.90;99.90;;;;;;5061473;28;20017;-72
2023/09/29 12:20:43;;;;;;;5.32;3.63;;;22.80;99.90;;;;;;5061477;28;20025;-72
2023/09/29 12:23:09;;;;;;;8.98;3.78;;;22.80;99.90;;;;;;5061760;28;20025;-71
2023/09/29 12:25:38;;;;;;;6.63;3.80;;;22.80;99.90;;;;;;5061052;28;20125;-71
2023/09/29 12:28:04;;;;;;;9.13;3.75;;;22.90;99.90;;;;;;5060914;28;20053;-70
2023/09/29 12:30:30;;;;;;;13.10;3.80;;;22.90;99.90;;;;;;5060405;28;20541;-68
2023/09/29 12:32:56;;;;;;;5.13;3.30;;;23.00;99.90;;;;;;5059934;28;20021;-71